sensor_id;sensor_type;location;lat;lon;timestamp;P1;durP1;ratioP1;P2;durP2;ratioP2
47381;SDS011;33128;51.580;5.170;2022-08-16T03:59:17;17.38;;;15.55;;
47381;SDS011;33128;51.580;5.170;2022-08-16T04:01:43;16.88;;;15.27;;
47381;SDS011;33128;51.580;5.170;2022-08-16T04:04:09;22.02;;;16.52;;
47381;SDS011;33128;51.580;5.170;2022-08-16T04:06:34;19.35;;;16.33;;
47381;SDS011;33128;51.580;5.170;2022-08-16T04:09:00;19.65;;;16.05;;
47381;SDS011;33128;51.580;5.170;2022-08-16T04:11:25;18.23;;;15.93;;
47381;SDS011;33128;51.580;5.170;2022-08-16T04:13:51;21.88;;;16.70;;
47381;SDS011;33128;51.580;5.170;2022-08-16T04:16:16;17.80;;;16.08;;
47381;SDS011;33128;51.580;5.170;2022-08-16T04:18:42;17.52;;;15.68;;
47381;SDS011;33128;51.580;5.170;2022-08-16T04:21:08;20.17;;;16.35;;
47381;SDS011;33128;51.580;5.170;2022-08-16T04:23:34;21.90;;;16.10;;
47381;SDS011;33128;51.580;5.170;2022-08-16T04:26:02;18.30;;;16.27;;
47381;SDS011;33128;51.580;5.170;2022-08-16T04:28:29;21.23;;;16.48;;
47381;SDS011;33128;51.580;5.170;2022-08-16T04:30:55;18.67;;;15.13;;
47381;SDS011;33128;51.580;5.170;2022-08-16T04:33:20;19.00;;;15.70;;
47381;SDS011;33128;51.580;5.170;2022-08-16T04:35:46;17.70;;;15.27;;
47381;SDS011;33128;51.580;5.170;2022-08-16T04:38:12;17.30;;;15.30;;
47381;SDS011;33128;51.580;5.170;2022-08-16T04:40:37;20.63;;;15.63;;
47381;SDS011;33128;51.580;5.170;2022-08-16T04:43:03;21.23;;;16.70;;
47381;SDS011;33128;51.580;5.170;2022-08-16T04:45:28;22.55;;;17.15;;
47381;SDS011;33128;51.580;5.170;2022-08-16T04:47:54;21.23;;;18.23;;
47381;SDS011;33128;51.580;5.170;2022-08-16T04:50:21;23.17;;;17.45;;
47381;SDS011;33128;51.580;5.170;2022-08-16T04:52:49;22.20;;;18.15;;
47381;SDS011;33128;51.580;5.170;2022-08-16T04:55:19;26.38;;;19.63;;
47381;SDS011;33128;51.580;5.170;2022-08-16T04:57:47;23.08;;;19.05;;
47381;SDS011;33128;51.580;5.170;2022-08-16T05:00:16;21.30;;;16.88;;
47381;SDS011;33128;51.580;5.170;2022-08-16T05:02:47;21.73;;;17.08;;
47381;SDS011;33128;51.580;5.170;2022-08-16T05:05:14;24.27;;;18.67;;
47381;SDS011;33128;51.580;5.170;2022-08-16T05:07:40;20.90;;;16.65;;
47381;SDS011;33128;51.580;5.170;2022-08-16T05:10:06;24.08;;;17.77;;
47381;SDS011;33128;51.580;5.170;2022-08-16T05:12:33;22.95;;;17.67;;
47381;SDS011;33128;51.580;5.170;2022-08-16T05:14:59;23.83;;;18.40;;
47381;SDS011;33128;51.580;5.170;2022-08-16T05:17:25;25.48;;;18.98;;
47381;SDS011;33128;51.580;5.170;2022-08-16T05:19:51;22.70;;;18.77;;
47381;SDS011;33128;51.580;5.170;2022-08-16T05:22:17;27.83;;;18.20;;
47381;SDS011;33128;51.580;5.170;2022-08-16T05:24:42;26.83;;;18.88;;
47381;SDS011;33128;51.580;5.170;2022-08-16T05:27:08;25.67;;;17.83;;
47381;SDS011;33128;51.580;5.170;2022-08-16T05:29:34;20.60;;;18.30;;
47381;SDS011;33128;51.580;5.170;2022-08-16T05:31:59;22.80;;;18.50;;
47381;SDS011;33128;51.580;5.170;2022-08-16T05:34:29;26.52;;;19.80;;
47381;SDS011;33128;51.580;5.170;2022-08-16T05:36:55;24.20;;;20.05;;
47381;SDS011;33128;51.580;5.170;2022-08-16T05:39:22;33.45;;;19.70;;
47381;SDS011;33128;51.580;5.170;2022-08-16T05:41:49;20.48;;;18.23;;
47381;SDS011;33128;51.580;5.170;2022-08-16T05:44:15;21.17;;;18.80;;
47381;SDS011;33128;51.580;5.170;2022-08-16T05:46:41;25.90;;;19.77;;
47381;SDS011;33128;51.580;5.170;2022-08-16T05:49:09;20.88;;;17.15;;
47381;SDS011;33128;51.580;5.170;2022-08-16T05:51:37;23.40;;;18.02;;
47381;SDS011;33128;51.580;5.170;2022-08-16T05:54:02;23.08;;;17.95;;
47381;SDS011;33128;51.580;5.170;2022-08-16T05:56:28;23.58;;;18.33;;
47381;SDS011;33128;51.580;5.170;2022-08-16T05:58:54;22.10;;;17.38;;
47381;SDS011;33128;51.580;5.170;2022-08-16T06:01:19;20.88;;;18.15;;
47381;SDS011;33128;51.580;5.170;2022-08-16T06:03:45;20.38;;;17.15;;
47381;SDS011;33128;51.580;5.170;2022-08-16T06:06:10;21.08;;;16.23;;
47381;SDS011;33128;51.580;5.170;2022-08-16T06:08:36;21.63;;;18.03;;
47381;SDS011;33128;51.580;5.170;2022-08-16T06:11:01;35.83;;;19.02;;
47381;SDS011;33128;51.580;5.170;2022-08-16T06:13:27;23.80;;;19.15;;
47381;SDS011;33128;51.580;5.170;2022-08-16T06:15:53;18.67;;;16.80;;
47381;SDS011;33128;51.580;5.170;2022-08-16T06:18:21;20.80;;;18.45;;
47381;SDS011;33128;51.580;5.170;2022-08-16T06:20:47;20.35;;;18.20;;
47381;SDS011;33128;51.580;5.170;2022-08-16T06:23:12;22.92;;;18.65;;
47381;SDS011;33128;51.580;5.170;2022-08-16T06:25:38;23.10;;;17.95;;
47381;SDS011;33128;51.580;5.170;2022-08-16T06:28:03;20.83;;;18.50;;
